Alvin, Wisconsin
Current Conditions -  °F | °C
As of 3:15 AM on Sunday 26 Oct 2014 (Local Time) from KEGV Reporting Station
Clear Clear  
Wind Chill: 31°   Ceiling: Unl
Heat Index: 35°   Visibility: 10mi
Dew Point: 25°   Wind: 5mph
Humidity: 67%   Direction: 270°W
Pressure: 29.94"   Gusts: NA
Location:  45.9186°N, 88.7601°W
Report Text: KEGV 260815Z AUTO 27004KT 10SM CLR 02/M04 A2994 RMK AO2 T00191037
Loading
Personal Weather Stations






























Interactive Weather Map
Tropical Storm Tracking
New forecast layout! Learn more

10-Day Weather Forecast

Advertisements
Track Severe Weather on mobile